sensor_id;sensor_type;location;lat;lon;timestamp;P1;durP1;ratioP1;P2;durP2;ratioP2
69150;SDS011;56257;52.196;13.870;2022-09-09T00:02:26;3.95;;;1.38;;
69150;SDS011;56257;52.196;13.870;2022-09-09T00:04:58;3.20;;;1.25;;
69150;SDS011;56257;52.196;13.870;2022-09-09T00:07:35;2.80;;;1.15;;
69150;SDS011;56257;52.196;13.870;2022-09-09T00:10:16;2.90;;;1.10;;
69150;SDS011;56257;52.196;13.870;2022-09-09T00:21:06;3.63;;;1.40;;
69150;SDS011;56257;52.196;13.870;2022-09-09T00:23:39;3.00;;;1.30;;
69150;SDS011;56257;52.196;13.870;2022-09-09T00:26:22;3.50;;;1.30;;
69150;SDS011;56257;52.196;13.870;2022-09-09T00:31:38;3.17;;;1.10;;
69150;SDS011;56257;52.196;13.870;2022-09-09T00:36:45;2.70;;;1.00;;
69150;SDS011;56257;52.196;13.870;2022-09-09T00:39:19;5.25;;;1.20;;
69150;SDS011;56257;52.196;13.870;2022-09-09T00:42:02;4.15;;;1.20;;
69150;SDS011;56257;52.196;13.870;2022-09-09T00:44:38;3.05;;;1.33;;
69150;SDS011;56257;52.196;13.870;2022-09-09T00:53:24;3.05;;;1.25;;
69150;SDS011;56257;52.196;13.870;2022-09-09T00:56:05;3.50;;;1.13;;
69150;SDS011;56257;52.196;13.870;2022-09-09T00:58:34;3.08;;;1.35;;
69150;SDS011;56257;52.196;13.870;2022-09-09T01:01:05;3.10;;;1.25;;
69150;SDS011;56257;52.196;13.870;2022-09-09T01:06:16;2.88;;;1.05;;
69150;SDS011;56257;52.196;13.870;2022-09-09T01:16:54;3.63;;;1.30;;
69150;SDS011;56257;52.196;13.870;2022-09-09T01:19:30;3.10;;;1.10;;
69150;SDS011;56257;52.196;13.870;2022-09-09T01:27:39;3.13;;;1.08;;
69150;SDS011;56257;52.196;13.870;2022-09-09T01:30:09;3.93;;;1.40;;
69150;SDS011;56257;52.196;13.870;2022-09-09T01:35:08;3.50;;;1.40;;
69150;SDS011;56257;52.196;13.870;2022-09-09T01:37:41;3.90;;;1.40;;
69150;SDS011;56257;52.196;13.870;2022-09-09T01:40:08;3.10;;;1.20;;
69150;SDS011;56257;52.196;13.870;2022-09-09T01:42:35;3.13;;;1.57;;
69150;SDS011;56257;52.196;13.870;2022-09-09T01:45:01;3.00;;;1.00;;
69150;SDS011;56257;52.196;13.870;2022-09-09T01:47:28;3.00;;;0.98;;
69150;SDS011;56257;52.196;13.870;2022-09-09T01:49:55;2.60;;;0.95;;
69150;SDS011;56257;52.196;13.870;2022-09-09T01:52:22;4.15;;;1.00;;
69150;SDS011;56257;52.196;13.870;2022-09-09T01:54:48;2.97;;;1.17;;
69150;SDS011;56257;52.196;13.870;2022-09-09T01:57:17;3.20;;;1.20;;
69150;SDS011;56257;52.196;13.870;2022-09-09T02:02:21;3.03;;;1.23;;
69150;SDS011;56257;52.196;13.870;2022-09-09T02:04:54;3.13;;;1.25;;
69150;SDS011;56257;52.196;13.870;2022-09-09T02:10:09;2.58;;;0.90;;
69150;SDS011;56257;52.196;13.870;2022-09-09T02:12:42;2.70;;;1.00;;
69150;SDS011;56257;52.196;13.870;2022-09-09T02:15:57;3.00;;;1.02;;
69150;SDS011;56257;52.196;13.870;2022-09-09T02:18:09;2.75;;;0.90;;
69150;SDS011;56257;52.196;13.870;2022-09-09T02:20:36;3.40;;;1.20;;
69150;SDS011;56257;52.196;13.870;2022-09-09T02:23:04;2.97;;;1.20;;
69150;SDS011;56257;52.196;13.870;2022-09-09T02:25:32;3.17;;;1.60;;
69150;SDS011;56257;52.196;13.870;2022-09-09T02:28:00;2.90;;;1.23;;
69150;SDS011;56257;52.196;13.870;2022-09-09T02:30:29;3.20;;;1.45;;
69150;SDS011;56257;52.196;13.870;2022-09-09T02:32:57;3.57;;;1.50;;
69150;SDS011;56257;52.196;13.870;2022-09-09T02:35:26;3.40;;;1.70;;
69150;SDS011;56257;52.196;13.870;2022-09-09T02:37:55;4.63;;;1.30;;
69150;SDS011;56257;52.196;13.870;2022-09-09T02:40:23;3.67;;;1.35;;
69150;SDS011;56257;52.196;13.870;2022-09-09T02:42:50;3.83;;;1.70;;
69150;SDS011;56257;52.196;13.870;2022-09-09T02:45:18;3.33;;;1.30;;
69150;SDS011;56257;52.196;13.870;2022-09-09T02:47:55;4.35;;;1.60;;
69150;SDS011;56257;52.196;13.870;2022-09-09T02:50:32;5.32;;;1.50;;
69150;SDS011;56257;52.196;13.870;2022-09-09T02:55:50;3.30;;;1.45;;
69150;SDS011;56257;52.196;13.870;2022-09-09T02:58:20;3.47;;;1.60;;
69150;SDS011;56257;52.196;13.870;2022-09-09T03:00:48;4.55;;;1.83;;
69150;SDS011;56257;52.196;13.870;2022-09-09T03:03:17;3.42;;;1.50;;
69150;SDS011;56257;52.196;13.870;2022-09-09T03:05:44;3.33;;;1.55;;
69150;SDS011;56257;52.196;13.870;2022-09-09T03:08:11;3.13;;;1.40;;
69150;SDS011;56257;52.196;13.870;2022-09-09T03:10:39;3.43;;;1.47;;
69150;SDS011;56257;52.196;13.870;2022-09-09T03:13:05;5.05;;;1.50;;
69150;SDS011;56257;52.196;13.870;2022-09-09T03:15:32;4.03;;;1.40;;
69150;SDS011;56257;52.196;13.870;2022-09-09T03:17:59;3.30;;;1.35;;
69150;SDS011;56257;52.196;13.870;2022-09-09T03:20:27;5.50;;;1.40;;
69150;SDS011;56257;52.196;13.870;2022-09-09T03:22:54;3.60;;;1.50;;
69150;SDS011;56257;52.196;13.870;2022-09-09T03:25:22;4.50;;;1.67;;
69150;SDS011;56257;52.196;13.870;2022-09-09T03:27:50;3.30;;;1.50;;
69150;SDS011;56257;52.196;13.870;2022-09-09T03:30:21;5.43;;;1.58;;
69150;SDS011;56257;52.196;13.870;2022-09-09T03:32:48;3.28;;;1.50;;
69150;SDS011;56257;52.196;13.870;2022-09-09T03:35:15;4.30;;;1.30;;
69150;SDS011;56257;52.196;13.870;2022-09-09T03:37:42;4.43;;;1.50;;
69150;SDS011;56257;52.196;13.870;2022-09-09T03:40:08;4.30;;;1.40;;
69150;SDS011;56257;52.196;13.870;2022-09-09T03:42:36;3.85;;;1.60;;
69150;SDS011;56257;52.196;13.870;2022-09-09T03:45:04;4.63;;;1.50;;
69150;SDS011;56257;52.196;13.870;2022-09-09T03:47:32;3.43;;;1.23;;
69150;SDS011;56257;52.196;13.870;2022-09-09T03:49:59;3.60;;;1.58;;
69150;SDS011;56257;52.196;13.870;2022-09-09T03:52:26;3.08;;;1.30;;
69150;SDS011;56257;52.196;13.870;2022-09-09T03:54:53;4.20;;;1.40;;
69150;SDS011;56257;52.196;13.870;2022-09-09T03:57:20;3.28;;;1.20;;
69150;SDS011;56257;52.196;13.870;2022-09-09T03:59:47;3.93;;;1.70;;
69150;SDS011;56257;52.196;13.870;2022-09-09T04:02:14;3.88;;;1.35;;
69150;SDS011;56257;52.196;13.870;2022-09-09T04:04:41;2.95;;;1.30;;
69150;SDS011;56257;52.196;13.870;2022-09-09T04:07:08;3.00;;;1.40;;
69150;SDS011;56257;52.196;13.870;2022-09-09T04:09:35;3.17;;;1.20;;
69150;SDS011;56257;52.196;13.870;2022-09-09T04:12:02;3.60;;;1.20;;
69150;SDS011;56257;52.196;13.870;2022-09-09T04:14:29;3.25;;;1.55;;
69150;SDS011;56257;52.196;13.870;2022-09-09T04:16:55;3.50;;;1.10;;
69150;SDS011;56257;52.196;13.870;2022-09-09T04:19:23;5.03;;;1.42;;
69150;SDS011;56257;52.196;13.870;2022-09-09T04:21:50;3.40;;;1.38;;
69150;SDS011;56257;52.196;13.870;2022-09-09T04:24:17;3.67;;;1.50;;
69150;SDS011;56257;52.196;13.870;2022-09-09T04:26:45;3.63;;;1.40;;
69150;SDS011;56257;52.196;13.870;2022-09-09T04:29:11;3.50;;;1.35;;
69150;SDS011;56257;52.196;13.870;2022-09-09T04:31:38;3.33;;;1.40;;
69150;SDS011;56257;52.196;13.870;2022-09-09T04:34:11;4.55;;;1.10;;
69150;SDS011;56257;52.196;13.870;2022-09-09T04:36:37;2.83;;;1.20;;
69150;SDS011;56257;52.196;13.870;2022-09-09T04:39:06;4.22;;;1.42;;
69150;SDS011;56257;52.196;13.870;2022-09-09T04:41:32;3.95;;;1.40;;
69150;SDS011;56257;52.196;13.870;2022-09-09T04:43:59;3.28;;;1.42;;
69150;SDS011;56257;52.196;13.870;2022-09-09T04:46:26;4.25;;;1.30;;
69150;SDS011;56257;52.196;13.870;2022-09-09T04:48:53;3.97;;;1.20;;
69150;SDS011;56257;52.196;13.870;2022-09-09T04:51:20;3.10;;;1.10;;
69150;SDS011;56257;52.196;13.870;2022-09-09T04:53:47;4.72;;;1.60;;
69150;SDS011;56257;52.196;13.870;2022-09-09T04:56:15;4.47;;;1.40;;
69150;SDS011;56257;52.196;13.870;2022-09-09T04:58:43;3.67;;;1.40;;
69150;SDS011;56257;52.196;13.870;2022-09-09T05:01:11;4.30;;;1.50;;
69150;SDS011;56257;52.196;13.870;2022-09-09T05:03:43;6.28;;;1.52;;
69150;SDS011;56257;52.196;13.870;2022-09-09T05:06:15;3.53;;;1.40;;
69150;SDS011;56257;52.196;13.870;2022-09-09T05:08:46;3.97;;;1.30;;
69150;SDS011;56257;52.196;13.870;2022-09-09T05:11:46;3.20;;;1.20;;
69150;SDS011;56257;52.196;13.870;2022-09-09T05:14:05;3.47;;;1.60;;
69150;SDS011;56257;52.196;13.870;2022-09-09T05:16:32;4.43;;;1.42;;
69150;SDS011;56257;52.196;13.870;2022-09-09T05:18:58;3.28;;;1.50;;
69150;SDS011;56257;52.196;13.870;2022-09-09T05:21:25;3.45;;;1.10;;
69150;SDS011;56257;52.196;13.870;2022-09-09T05:23:52;3.38;;;1.40;;
69150;SDS011;56257;52.196;13.870;2022-09-09T05:26:20;4.13;;;1.63;;
69150;SDS011;56257;52.196;13.870;2022-09-09T05:28:48;4.40;;;1.38;;
69150;SDS011;56257;52.196;13.870;2022-09-09T05:31:15;3.60;;;1.58;;
69150;SDS011;56257;52.196;13.870;2022-09-09T05:33:43;3.33;;;1.33;;
69150;SDS011;56257;52.196;13.870;2022-09-09T05:36:13;3.88;;;1.40;;
69150;SDS011;56257;52.196;13.870;2022-09-09T05:38:40;4.30;;;1.30;;
69150;SDS011;56257;52.196;13.870;2022-09-09T05:41:08;3.65;;;1.27;;
69150;SDS011;56257;52.196;13.870;2022-09-09T05:43:36;5.40;;;1.30;;
69150;SDS011;56257;52.196;13.870;2022-09-09T05:46:08;4.88;;;1.40;;
69150;SDS011;56257;52.196;13.870;2022-09-09T05:48:36;5.97;;;1.60;;
69150;SDS011;56257;52.196;13.870;2022-09-09T05:51:05;4.50;;;1.30;;
69150;SDS011;56257;52.196;13.870;2022-09-09T05:53:33;4.28;;;1.30;;
69150;SDS011;56257;52.196;13.870;2022-09-09T05:56:06;3.38;;;1.33;;
69150;SDS011;56257;52.196;13.870;2022-09-09T05:58:37;5.65;;;1.52;;
69150;SDS011;56257;52.196;13.870;2022-09-09T06:01:08;4.97;;;1.48;;
69150;SDS011;56257;52.196;13.870;2022-09-09T06:03:37;3.13;;;1.10;;
69150;SDS011;56257;52.196;13.870;2022-09-09T06:06:06;3.35;;;1.20;;
69150;SDS011;56257;52.196;13.870;2022-09-09T06:08:34;3.17;;;1.27;;
69150;SDS011;56257;52.196;13.870;2022-09-09T06:11:08;4.80;;;1.30;;
69150;SDS011;56257;52.196;13.870;2022-09-09T06:13:37;3.30;;;1.10;;
69150;SDS011;56257;52.196;13.870;2022-09-09T06:16:08;3.33;;;1.20;;
69150;SDS011;56257;52.196;13.870;2022-09-09T06:18:38;9.60;;;1.10;;
69150;SDS011;56257;52.196;13.870;2022-09-09T06:21:06;3.10;;;1.20;;
69150;SDS011;56257;52.196;13.870;2022-09-09T06:23:34;4.55;;;1.00;;
69150;SDS011;56257;52.196;13.870;2022-09-09T06:26:12;4.00;;;1.33;;
69150;SDS011;56257;52.196;13.870;2022-09-09T06:28:46;4.00;;;1.30;;
69150;SDS011;56257;52.196;13.870;2022-09-09T06:31:15;4.88;;;1.35;;
69150;SDS011;56257;52.196;13.870;2022-09-09T06:33:55;3.72;;;1.40;;
69150;SDS011;56257;52.196;13.870;2022-09-09T06:36:23;4.28;;;1.60;;
69150;SDS011;56257;52.196;13.870;2022-09-09T06:38:53;5.90;;;1.30;;
69150;SDS011;56257;52.196;13.870;2022-09-09T06:41:20;3.20;;;1.23;;
69150;SDS011;56257;52.196;13.870;2022-09-09T06:43:49;4.22;;;0.90;;
69150;SDS011;56257;52.196;13.870;2022-09-09T06:46:17;3.22;;;1.08;;
69150;SDS011;56257;52.196;13.870;2022-09-09T06:48:45;4.35;;;1.27;;
69150;SDS011;56257;52.196;13.870;2022-09-09T06:51:13;3.40;;;1.30;;
69150;SDS011;56257;52.196;13.870;2022-09-09T06:53:44;6.03;;;1.73;;
69150;SDS011;56257;52.196;13.870;2022-09-09T06:58:44;4.28;;;1.52;;
69150;SDS011;56257;52.196;13.870;2022-09-09T07:01:16;3.88;;;1.35;;
69150;SDS011;56257;52.196;13.870;2022-09-09T07:03:45;2.80;;;1.00;;
69150;SDS011;56257;52.196;13.870;2022-09-09T07:06:15;4.00;;;1.53;;
69150;SDS011;56257;52.196;13.870;2022-09-09T07:08:43;4.43;;;1.50;;
69150;SDS011;56257;52.196;13.870;2022-09-09T07:11:22;3.35;;;1.40;;
69150;SDS011;56257;52.196;13.870;2022-09-09T07:13:49;3.67;;;1.13;;
69150;SDS011;56257;52.196;13.870;2022-09-09T07:16:16;4.38;;;1.52;;
69150;SDS011;56257;52.196;13.870;2022-09-09T07:18:44;3.23;;;1.10;;
69150;SDS011;56257;52.196;13.870;2022-09-09T07:21:11;2.92;;;1.20;;
69150;SDS011;56257;52.196;13.870;2022-09-09T07:23:39;3.55;;;1.40;;
69150;SDS011;56257;52.196;13.870;2022-09-09T07:26:10;3.97;;;1.38;;
69150;SDS011;56257;52.196;13.870;2022-09-09T07:28:38;4.40;;;1.10;;
69150;SDS011;56257;52.196;13.870;2022-09-09T07:31:08;3.20;;;1.10;;
69150;SDS011;56257;52.196;13.870;2022-09-09T07:33:39;3.80;;;1.30;;
69150;SDS011;56257;52.196;13.870;2022-09-09T07:36:16;4.95;;;1.40;;
69150;SDS011;56257;52.196;13.870;2022-09-09T07:38:45;2.95;;;1.10;;
69150;SDS011;56257;52.196;13.870;2022-09-09T07:41:15;6.55;;;1.58;;
69150;SDS011;56257;52.196;13.870;2022-09-09T07:43:44;3.93;;;1.40;;
69150;SDS011;56257;52.196;13.870;2022-09-09T07:46:13;5.93;;;1.40;;
69150;SDS011;56257;52.196;13.870;2022-09-09T07:48:44;4.82;;;1.27;;
69150;SDS011;56257;52.196;13.870;2022-09-09T07:51:13;5.50;;;1.33;;
69150;SDS011;56257;52.196;13.870;2022-09-09T07:53:43;4.25;;;1.42;;
69150;SDS011;56257;52.196;13.870;2022-09-09T07:56:12;6.50;;;1.40;;
69150;SDS011;56257;52.196;13.870;2022-09-09T07:58:40;4.15;;;1.30;;
69150;SDS011;56257;52.196;13.870;2022-09-09T08:01:11;4.10;;;1.38;;
69150;SDS011;56257;52.196;13.870;2022-09-09T08:03:42;3.40;;;1.25;;
69150;SDS011;56257;52.196;13.870;2022-09-09T08:06:09;3.65;;;1.58;;
69150;SDS011;56257;52.196;13.870;2022-09-09T08:08:36;4.00;;;1.50;;
69150;SDS011;56257;52.196;13.870;2022-09-09T08:11:05;4.00;;;1.65;;
69150;SDS011;56257;52.196;13.870;2022-09-09T08:13:41;4.50;;;1.63;;
69150;SDS011;56257;52.196;13.870;2022-09-09T08:16:10;5.55;;;2.25;;
69150;SDS011;56257;52.196;13.870;2022-09-09T08:18:38;5.95;;;1.98;;
69150;SDS011;56257;52.196;13.870;2022-09-09T08:21:13;4.87;;;1.90;;
69150;SDS011;56257;52.196;13.870;2022-09-09T08:23:41;7.07;;;2.30;;
69150;SDS011;56257;52.196;13.870;2022-09-09T08:26:12;5.97;;;1.90;;
69150;SDS011;56257;52.196;13.870;2022-09-09T08:28:41;5.95;;;2.08;;
69150;SDS011;56257;52.196;13.870;2022-09-09T08:31:09;5.50;;;2.13;;
69150;SDS011;56257;52.196;13.870;2022-09-09T08:33:44;5.03;;;1.57;;
69150;SDS011;56257;52.196;13.870;2022-09-09T08:36:19;4.75;;;2.00;;
69150;SDS011;56257;52.196;13.870;2022-09-09T08:38:51;4.70;;;1.52;;
69150;SDS011;56257;52.196;13.870;2022-09-09T08:58:18;4.63;;;1.55;;
69150;SDS011;56257;52.196;13.870;2022-09-09T09:11:39;4.00;;;1.50;;
69150;SDS011;56257;52.196;13.870;2022-09-09T09:14:23;5.40;;;1.37;;
69150;SDS011;56257;52.196;13.870;2022-09-09T09:19:24;3.85;;;1.35;;
69150;SDS011;56257;52.196;13.870;2022-09-09T09:27:43;4.50;;;1.20;;
69150;SDS011;56257;52.196;13.870;2022-09-09T09:30:24;5.28;;;1.17;;
69150;SDS011;56257;52.196;13.870;2022-09-09T09:32:58;7.28;;;1.40;;
69150;SDS011;56257;52.196;13.870;2022-09-09T09:35:27;3.58;;;1.25;;
69150;SDS011;56257;52.196;13.870;2022-09-09T09:37:54;3.92;;;1.17;;
69150;SDS011;56257;52.196;13.870;2022-09-09T09:41:15;3.40;;;1.10;;
69150;SDS011;56257;52.196;13.870;2022-09-09T09:43:35;3.33;;;0.93;;
69150;SDS011;56257;52.196;13.870;2022-09-09T09:46:03;4.38;;;1.00;;
69150;SDS011;56257;52.196;13.870;2022-09-09T09:48:43;3.72;;;1.08;;
69150;SDS011;56257;52.196;13.870;2022-09-09T09:51:12;6.97;;;1.27;;
69150;SDS011;56257;52.196;13.870;2022-09-09T09:53:42;4.07;;;1.00;;
69150;SDS011;56257;52.196;13.870;2022-09-09T09:56:10;3.40;;;1.00;;
69150;SDS011;56257;52.196;13.870;2022-09-09T10:01:27;3.97;;;1.23;;
69150;SDS011;56257;52.196;13.870;2022-09-09T10:04:00;3.65;;;1.30;;
69150;SDS011;56257;52.196;13.870;2022-09-09T10:06:35;5.53;;;1.20;;
69150;SDS011;56257;52.196;13.870;2022-09-09T10:09:17;5.05;;;0.80;;
69150;SDS011;56257;52.196;13.870;2022-09-09T10:20:04;6.43;;;1.17;;
69150;SDS011;56257;52.196;13.870;2022-09-09T10:22:44;4.70;;;1.20;;
69150;SDS011;56257;52.196;13.870;2022-09-09T10:36:58;5.43;;;1.20;;
69150;SDS011;56257;52.196;13.870;2022-09-09T10:42:09;4.60;;;1.08;;
69150;SDS011;56257;52.196;13.870;2022-09-09T10:47:27;3.77;;;1.00;;
69150;SDS011;56257;52.196;13.870;2022-09-09T10:56:09;3.75;;;1.00;;
69150;SDS011;56257;52.196;13.870;2022-09-09T11:01:15;4.43;;;1.20;;
69150;SDS011;56257;52.196;13.870;2022-09-09T11:03:47;3.35;;;1.17;;
69150;SDS011;56257;52.196;13.870;2022-09-09T11:06:19;5.95;;;1.50;;
69150;SDS011;56257;52.196;13.870;2022-09-09T11:08:47;6.40;;;1.33;;
69150;SDS011;56257;52.196;13.870;2022-09-09T11:11:21;4.47;;;1.30;;
69150;SDS011;56257;52.196;13.870;2022-09-09T11:14:11;6.20;;;1.30;;
69150;SDS011;56257;52.196;13.870;2022-09-09T11:16:42;4.20;;;1.33;;
69150;SDS011;56257;52.196;13.870;2022-09-09T11:19:33;4.07;;;0.98;;
69150;SDS011;56257;52.196;13.870;2022-09-09T11:27:47;3.43;;;1.00;;
69150;SDS011;56257;52.196;13.870;2022-09-09T11:30:22;3.47;;;1.05;;
69150;SDS011;56257;52.196;13.870;2022-09-09T11:36:03;4.22;;;0.85;;
69150;SDS011;56257;52.196;13.870;2022-09-09T11:38:45;3.60;;;1.23;;
69150;SDS011;56257;52.196;13.870;2022-09-09T11:41:17;4.40;;;0.90;;
69150;SDS011;56257;52.196;13.870;2022-09-09T11:43:53;5.15;;;1.60;;
69150;SDS011;56257;52.196;13.870;2022-09-09T11:46:21;3.38;;;1.20;;
69150;SDS011;56257;52.196;13.870;2022-09-09T11:49:03;3.95;;;1.30;;
69150;SDS011;56257;52.196;13.870;2022-09-09T11:51:32;3.38;;;1.17;;
69150;SDS011;56257;52.196;13.870;2022-09-09T11:54:00;3.97;;;1.00;;
69150;SDS011;56257;52.196;13.870;2022-09-09T11:56:29;3.65;;;1.00;;
69150;SDS011;56257;52.196;13.870;2022-09-09T11:59:02;3.30;;;1.20;;
69150;SDS011;56257;52.196;13.870;2022-09-09T12:01:43;4.15;;;0.90;;
69150;SDS011;56257;52.196;13.870;2022-09-09T12:04:13;5.28;;;1.35;;
69150;SDS011;56257;52.196;13.870;2022-09-09T12:06:55;4.53;;;1.30;;
69150;SDS011;56257;52.196;13.870;2022-09-09T12:09:27;4.43;;;1.10;;
69150;SDS011;56257;52.196;13.870;2022-09-09T12:17:22;3.30;;;1.10;;
69150;SDS011;56257;52.196;13.870;2022-09-09T12:19:59;4.13;;;1.20;;
69150;SDS011;56257;52.196;13.870;2022-09-09T12:22:39;5.05;;;0.80;;
69150;SDS011;56257;52.196;13.870;2022-09-09T12:28:17;4.90;;;1.00;;
69150;SDS011;56257;52.196;13.870;2022-09-09T12:31:00;5.43;;;1.48;;
69150;SDS011;56257;52.196;13.870;2022-09-09T12:33:34;5.53;;;1.37;;
69150;SDS011;56257;52.196;13.870;2022-09-09T12:36:02;6.85;;;1.65;;
69150;SDS011;56257;52.196;13.870;2022-09-09T12:38:32;7.65;;;2.15;;
69150;SDS011;56257;52.196;13.870;2022-09-09T12:41:01;4.95;;;1.20;;
69150;SDS011;56257;52.196;13.870;2022-09-09T12:43:29;4.47;;;1.30;;
69150;SDS011;56257;52.196;13.870;2022-09-09T12:46:00;8.30;;;1.90;;
69150;SDS011;56257;52.196;13.870;2022-09-09T12:48:35;9.40;;;1.63;;
69150;SDS011;56257;52.196;13.870;2022-09-09T12:51:06;8.40;;;1.20;;
69150;SDS011;56257;52.196;13.870;2022-09-09T12:53:44;7.97;;;1.13;;
69150;SDS011;56257;52.196;13.870;2022-09-09T12:56:19;5.20;;;1.52;;
69150;SDS011;56257;52.196;13.870;2022-09-09T12:58:47;6.20;;;1.10;;
69150;SDS011;56257;52.196;13.870;2022-09-09T13:01:27;9.10;;;1.40;;
69150;SDS011;56257;52.196;13.870;2022-09-09T13:03:58;6.28;;;1.50;;
69150;SDS011;56257;52.196;13.870;2022-09-09T13:06:29;3.88;;;1.27;;
69150;SDS011;56257;52.196;13.870;2022-09-09T13:08:57;3.55;;;1.10;;
69150;SDS011;56257;52.196;13.870;2022-09-09T13:14:05;4.07;;;1.10;;
69150;SDS011;56257;52.196;13.870;2022-09-09T13:16:33;4.20;;;1.05;;
69150;SDS011;56257;52.196;13.870;2022-09-09T13:19:16;5.95;;;0.80;;
69150;SDS011;56257;52.196;13.870;2022-09-09T13:21:43;6.68;;;1.80;;
69150;SDS011;56257;52.196;13.870;2022-09-09T13:30:19;12.23;;;2.65;;
69150;SDS011;56257;52.196;13.870;2022-09-09T13:33:04;8.65;;;2.47;;
69150;SDS011;56257;52.196;13.870;2022-09-09T13:35:31;7.65;;;1.88;;
69150;SDS011;56257;52.196;13.870;2022-09-09T13:37:59;8.23;;;2.60;;
69150;SDS011;56257;52.196;13.870;2022-09-09T13:40:33;8.40;;;2.25;;
69150;SDS011;56257;52.196;13.870;2022-09-09T13:43:00;10.65;;;2.22;;
69150;SDS011;56257;52.196;13.870;2022-09-09T13:45:28;8.07;;;1.80;;
69150;SDS011;56257;52.196;13.870;2022-09-09T13:47:55;4.72;;;1.55;;
69150;SDS011;56257;52.196;13.870;2022-09-09T13:50:23;5.70;;;1.60;;
69150;SDS011;56257;52.196;13.870;2022-09-09T13:52:52;4.90;;;1.58;;
69150;SDS011;56257;52.196;13.870;2022-09-09T13:55:21;5.95;;;1.20;;
69150;SDS011;56257;52.196;13.870;2022-09-09T13:57:55;5.47;;;1.58;;
69150;SDS011;56257;52.196;13.870;2022-09-09T14:00:29;7.43;;;1.30;;
69150;SDS011;56257;52.196;13.870;2022-09-09T14:02:57;4.17;;;1.30;;
69150;SDS011;56257;52.196;13.870;2022-09-09T14:05:24;5.20;;;1.33;;
69150;SDS011;56257;52.196;13.870;2022-09-09T14:07:51;4.28;;;1.50;;
69150;SDS011;56257;52.196;13.870;2022-09-09T14:10:18;8.38;;;0.90;;
69150;SDS011;56257;52.196;13.870;2022-09-09T14:12:45;5.50;;;1.35;;
69150;SDS011;56257;52.196;13.870;2022-09-09T14:15:12;6.73;;;1.70;;
69150;SDS011;56257;52.196;13.870;2022-09-09T14:17:40;8.07;;;1.38;;
69150;SDS011;56257;52.196;13.870;2022-09-09T14:20:07;3.65;;;1.23;;
69150;SDS011;56257;52.196;13.870;2022-09-09T14:22:35;4.97;;;1.35;;
69150;SDS011;56257;52.196;13.870;2022-09-09T14:25:02;6.03;;;1.60;;
69150;SDS011;56257;52.196;13.870;2022-09-09T14:27:29;5.70;;;0.80;;
69150;SDS011;56257;52.196;13.870;2022-09-09T14:29:56;4.55;;;1.10;;
69150;SDS011;56257;52.196;13.870;2022-09-09T14:32:24;4.05;;;1.13;;
69150;SDS011;56257;52.196;13.870;2022-09-09T14:34:50;4.85;;;1.10;;
69150;SDS011;56257;52.196;13.870;2022-09-09T14:37:17;4.53;;;1.63;;
69150;SDS011;56257;52.196;13.870;2022-09-09T14:39:44;3.40;;;1.20;;
69150;SDS011;56257;52.196;13.870;2022-09-09T14:42:11;6.03;;;1.40;;
69150;SDS011;56257;52.196;13.870;2022-09-09T14:44:38;5.53;;;1.10;;
69150;SDS011;56257;52.196;13.870;2022-09-09T14:47:05;3.95;;;1.10;;
69150;SDS011;56257;52.196;13.870;2022-09-09T14:49:31;5.82;;;1.10;;
69150;SDS011;56257;52.196;13.870;2022-09-09T14:51:58;3.43;;;0.80;;
69150;SDS011;56257;52.196;13.870;2022-09-09T14:54:25;5.55;;;1.67;;
69150;SDS011;56257;52.196;13.870;2022-09-09T14:56:51;4.25;;;0.80;;
69150;SDS011;56257;52.196;13.870;2022-09-09T14:59:18;3.95;;;0.90;;
69150;SDS011;56257;52.196;13.870;2022-09-09T15:01:45;4.05;;;1.10;;
69150;SDS011;56257;52.196;13.870;2022-09-09T15:04:12;3.87;;;1.23;;
69150;SDS011;56257;52.196;13.870;2022-09-09T15:06:40;4.38;;;1.10;;
69150;SDS011;56257;52.196;13.870;2022-09-09T15:09:10;5.35;;;1.00;;
69150;SDS011;56257;52.196;13.870;2022-09-09T15:11:37;5.95;;;0.98;;
69150;SDS011;56257;52.196;13.870;2022-09-09T15:14:05;4.43;;;1.05;;
69150;SDS011;56257;52.196;13.870;2022-09-09T15:16:32;4.00;;;1.00;;
69150;SDS011;56257;52.196;13.870;2022-09-09T15:19:00;5.25;;;0.90;;
69150;SDS011;56257;52.196;13.870;2022-09-09T15:21:29;3.78;;;0.82;;
69150;SDS011;56257;52.196;13.870;2022-09-09T15:23:57;3.38;;;0.90;;
69150;SDS011;56257;52.196;13.870;2022-09-09T15:26:24;4.03;;;0.98;;
69150;SDS011;56257;52.196;13.870;2022-09-09T15:28:52;8.60;;;1.10;;
69150;SDS011;56257;52.196;13.870;2022-09-09T15:31:19;5.53;;;1.23;;
69150;SDS011;56257;52.196;13.870;2022-09-09T15:33:48;4.32;;;1.30;;
69150;SDS011;56257;52.196;13.870;2022-09-09T15:36:32;3.65;;;1.15;;
69150;SDS011;56257;52.196;13.870;2022-09-09T15:39:04;4.40;;;1.30;;
69150;SDS011;56257;52.196;13.870;2022-09-09T15:41:32;3.73;;;1.20;;
69150;SDS011;56257;52.196;13.870;2022-09-09T15:43:59;4.65;;;1.10;;
69150;SDS011;56257;52.196;13.870;2022-09-09T15:46:28;4.07;;;1.10;;
69150;SDS011;56257;52.196;13.870;2022-09-09T15:49:07;5.30;;;1.20;;
69150;SDS011;56257;52.196;13.870;2022-09-09T15:51:38;4.22;;;1.25;;
69150;SDS011;56257;52.196;13.870;2022-09-09T15:54:13;6.03;;;1.23;;
69150;SDS011;56257;52.196;13.870;2022-09-09T15:56:43;5.15;;;1.20;;
69150;SDS011;56257;52.196;13.870;2022-09-09T15:59:11;4.63;;;0.95;;
69150;SDS011;56257;52.196;13.870;2022-09-09T16:01:38;4.78;;;1.30;;
69150;SDS011;56257;52.196;13.870;2022-09-09T16:04:05;4.00;;;1.20;;
69150;SDS011;56257;52.196;13.870;2022-09-09T16:06:32;5.30;;;1.60;;
69150;SDS011;56257;52.196;13.870;2022-09-09T16:08:59;4.85;;;2.08;;
69150;SDS011;56257;52.196;13.870;2022-09-09T16:11:30;6.25;;;2.05;;
69150;SDS011;56257;52.196;13.870;2022-09-09T16:13:58;3.40;;;1.40;;
69150;SDS011;56257;52.196;13.870;2022-09-09T16:16:26;5.72;;;1.58;;
69150;SDS011;56257;52.196;13.870;2022-09-09T16:18:55;3.63;;;1.50;;
69150;SDS011;56257;52.196;13.870;2022-09-09T16:21:36;4.57;;;1.38;;
69150;SDS011;56257;52.196;13.870;2022-09-09T16:24:06;3.63;;;1.20;;
69150;SDS011;56257;52.196;13.870;2022-09-09T16:26:34;4.53;;;1.50;;
69150;SDS011;56257;52.196;13.870;2022-09-09T16:29:02;5.78;;;1.10;;
69150;SDS011;56257;52.196;13.870;2022-09-09T16:31:30;13.50;;;1.50;;
69150;SDS011;56257;52.196;13.870;2022-09-09T16:33:58;5.65;;;1.23;;
69150;SDS011;56257;52.196;13.870;2022-09-09T16:36:26;3.38;;;0.95;;
69150;SDS011;56257;52.196;13.870;2022-09-09T16:38:54;4.00;;;1.02;;
69150;SDS011;56257;52.196;13.870;2022-09-09T16:41:24;3.25;;;1.10;;
69150;SDS011;56257;52.196;13.870;2022-09-09T16:43:57;4.03;;;1.30;;
69150;SDS011;56257;52.196;13.870;2022-09-09T16:46:26;4.97;;;1.05;;
69150;SDS011;56257;52.196;13.870;2022-09-09T16:48:55;5.95;;;1.20;;
69150;SDS011;56257;52.196;13.870;2022-09-09T16:51:23;3.97;;;1.30;;
69150;SDS011;56257;52.196;13.870;2022-09-09T16:53:52;4.25;;;1.02;;
69150;SDS011;56257;52.196;13.870;2022-09-09T16:56:20;3.20;;;1.10;;
69150;SDS011;56257;52.196;13.870;2022-09-09T16:58:49;3.22;;;0.88;;
69150;SDS011;56257;52.196;13.870;2022-09-09T17:01:17;2.80;;;0.70;;
69150;SDS011;56257;52.196;13.870;2022-09-09T17:03:44;4.38;;;0.70;;
69150;SDS011;56257;52.196;13.870;2022-09-09T17:06:12;4.38;;;0.90;;
69150;SDS011;56257;52.196;13.870;2022-09-09T17:08:40;3.33;;;0.80;;
69150;SDS011;56257;52.196;13.870;2022-09-09T17:11:17;2.83;;;1.00;;
69150;SDS011;56257;52.196;13.870;2022-09-09T17:13:45;3.65;;;1.05;;
69150;SDS011;56257;52.196;13.870;2022-09-09T17:16:14;3.35;;;1.20;;
69150;SDS011;56257;52.196;13.870;2022-09-09T17:18:42;9.02;;;8.15;;
69150;SDS011;56257;52.196;13.870;2022-09-09T17:21:09;24.10;;;21.60;;